Time;durP1;ratioP1;P1;durP2;ratioP2;P2;SDS_P1;SDS_P2;PMS_P1;PMS_P2;Temp;Humidity;BMP_temperature;BMP_pressure;BME280_temperature;BME280_humidity;BME280_pressure;Samples;Min_cycle;Max_cycle;Signal;HPM_P1;HPM_P2
2021/08/30 00:00:03;;;;;;;35.05;9.60;;;16.90;99.90;;;;;;4892723;29;20060;-92
2021/08/30 00:02:28;;;;;;;22.05;7.95;;;16.90;99.90;;;;;;4878220;29;20096;-91
2021/08/30 00:04:54;;;;;;;30.75;9.95;;;16.90;99.90;;;;;;4879473;29;20485;-89
2021/08/30 00:07:20;;;;;;;25.92;9.40;;;16.90;99.90;;;;;;4863028;29;20051;-91
2021/08/30 00:09:45;;;;;;;31.08;9.60;;;16.90;99.90;;;;;;4875531;29;20139;-91
2021/08/30 00:12:11;;;;;;;34.30;8.40;;;17.00;99.90;;;;;;4880010;29;20107;-90
2021/08/30 00:14:38;;;;;;;30.05;9.15;;;16.90;99.90;;;;;;4854091;29;20033;-90
2021/08/30 00:17:04;;;;;;;35.92;9.13;;;16.90;99.90;;;;;;4867526;29;20089;-90
2021/08/30 00:19:33;;;;;;;25.77;9.25;;;16.90;99.90;;;;;;4888802;29;20139;-90
2021/08/30 00:21:59;;;;;;;34.03;9.20;;;16.90;99.90;;;;;;4880595;29;20056;-90
2021/08/30 00:24:25;;;;;;;33.10;9.32;;;16.90;99.90;;;;;;4880153;29;20073;-90
2021/08/30 00:26:51;;;;;;;37.38;10.13;;;16.90;99.90;;;;;;4882000;29;20051;-90
2021/08/30 00:29:20;;;;;;;31.98;9.27;;;16.90;99.90;;;;;;4871607;29;20057;-90
2021/08/30 00:31:46;;;;;;;26.40;9.50;;;16.90;99.90;;;;;;4863721;29;20066;-90
2021/08/30 00:34:12;;;;;;;27.52;9.80;;;16.90;99.90;;;;;;4869491;29;20136;-90
2021/08/30 00:36:37;;;;;;;27.25;8.73;;;16.80;99.90;;;;;;4844494;29;20112;-90
2021/08/30 00:39:03;;;;;;;37.33;11.10;;;16.90;99.90;;;;;;4894048;29;20057;-91
2021/08/30 00:41:29;;;;;;;25.30;9.07;;;16.90;99.90;;;;;;4878424;29;20446;-90
2021/08/30 00:43:54;;;;;;;28.58;9.50;;;16.80;99.90;;;;;;4878586;29;20083;-90
2021/08/30 00:46:20;;;;;;;29.45;9.55;;;16.80;99.90;;;;;;4878192;29;20096;-90
2021/08/30 00:48:49;;;;;;;33.83;9.35;;;16.80;99.90;;;;;;4878135;29;20053;-90
2021/08/30 00:51:17;;;;;;;36.50;10.18;;;16.90;99.90;;;;;;4878438;29;20372;-90
2021/08/30 00:53:48;;;;;;;36.03;9.90;;;16.90;99.90;;;;;;4881662;29;20061;-90
2021/08/30 00:56:17;;;;;;;37.58;9.63;;;16.80;99.90;;;;;;4889432;29;20567;-90
2021/08/30 00:58:44;;;;;;;33.13;9.20;;;16.80;99.90;;;;;;4886666;29;20044;-90
2021/08/30 01:01:10;;;;;;;34.90;11.27;;;16.80;99.90;;;;;;4876938;29;20053;-90
2021/08/30 01:03:38;;;;;;;33.55;9.65;;;16.70;99.90;;;;;;4897686;29;20051;-89
2021/08/30 01:06:14;;;;;;;32.90;9.90;;;16.70;99.90;;;;;;4896581;29;20056;-89
2021/08/30 01:08:50;;;;;;;26.17;9.63;;;16.70;99.90;;;;;;4870351;29;20053;-90
2021/08/30 01:11:21;;;;;;;30.98;9.43;;;16.70;99.90;;;;;;4885280;29;20044;-92
2021/08/30 01:13:59;;;;;;;33.08;10.43;;;16.70;99.90;;;;;;4889901;29;20048;-91
2021/08/30 01:16:27;;;;;;;22.52;8.73;;;16.60;99.90;;;;;;4882088;29;20049;-91
2021/08/30 01:18:54;;;;;;;32.08;10.57;;;16.70;99.90;;;;;;4882327;29;20060;-91
2021/08/30 01:21:28;;;;;;;28.75;9.48;;;16.70;99.90;;;;;;4881957;29;20056;-90
2021/08/30 01:24:09;;;;;;;36.25;11.13;;;16.70;99.90;;;;;;4881755;29;20088;-91
2021/08/30 01:26:40;;;;;;;24.35;9.35;;;16.80;99.90;;;;;;4882489;29;20048;-91
2021/08/30 01:29:13;;;;;;;27.30;9.95;;;16.80;99.90;;;;;;4893494;29;20048;-92
2021/08/30 01:32:01;;;;;;;27.38;8.73;;;16.90;99.90;;;;;;4882815;29;20048;-92
2021/08/30 01:34:28;;;;;;;17.50;8.43;;;16.90;99.90;;;;;;4880928;29;20049;-93
2021/08/30 01:36:55;;;;;;;20.85;8.57;;;16.90;99.90;;;;;;4881463;29;20049;-91
2021/08/30 01:39:26;;;;;;;25.50;8.38;;;16.90;99.90;;;;;;4862284;29;20049;-91
2021/08/30 01:41:52;;;;;;;22.27;8.75;;;16.90;99.90;;;;;;4881170;29;20063;-91
2021/08/30 01:44:19;;;;;;;24.58;9.70;;;16.90;99.90;;;;;;4866221;29;20112;-91
2021/08/30 01:46:45;;;;;;;22.13;7.85;;;16.90;99.90;;;;;;4881174;29;20494;-90
2021/08/30 01:49:12;;;;;;;22.05;8.93;;;16.90;99.90;;;;;;4865416;29;20109;-92
2021/08/30 01:51:38;;;;;;;25.73;8.95;;;16.90;99.90;;;;;;4858255;29;20045;-91
2021/08/30 01:54:04;;;;;;;24.92;9.27;;;16.90;99.90;;;;;;4881152;29;20049;-91
2021/08/30 01:56:32;;;;;;;18.20;7.93;;;16.90;99.90;;;;;;4865479;29;20137;-91
2021/08/30 02:01:44;;;;;;;21.98;8.23;;;16.90;99.90;;;;;;4881422;29;20461;-91
2021/08/30 02:04:10;;;;;;;24.70;8.90;;;16.90;99.90;;;;;;4864825;29;20057;-91
2021/08/30 02:06:37;;;;;;;29.15;9.52;;;16.80;99.90;;;;;;4881114;29;20406;-91
2021/08/30 02:09:04;;;;;;;24.90;9.55;;;16.80;99.90;;;;;;4881243;29;20047;-91
2021/08/30 02:11:36;;;;;;;21.60;9.13;;;16.80;99.90;;;;;;4880611;29;20164;-91
2021/08/30 02:14:08;;;;;;;25.23;10.20;;;16.70;99.90;;;;;;4865828;29;20458;-90
2021/08/30 02:16:36;;;;;;;25.00;9.80;;;16.70;99.90;;;;;;4868615;29;20053;-91
2021/08/30 02:19:25;;;;;;;17.80;7.32;;;16.70;99.90;;;;;;4881089;29;20053;-90
2021/08/30 02:21:55;;;;;;;16.80;9.27;;;16.70;99.90;;;;;;4869923;29;20080;-91
2021/08/30 02:24:27;;;;;;;;;;;16.70;99.90;;;;;;4880852;29;20131;-90
2021/08/30 02:27:13;;;;;;;20.05;9.38;;;16.80;99.90;;;;;;4881166;29;19979;-91
2021/08/30 02:29:45;;;;;;;21.33;9.98;;;16.80;99.90;;;;;;4880296;29;20052;-91
2021/08/30 02:32:13;;;;;;;27.65;10.32;;;16.80;99.90;;;;;;4880659;29;20052;-91
2021/08/30 02:34:43;;;;;;;18.13;8.18;;;16.80;99.90;;;;;;4879786;29;20052;-91
2021/08/30 02:37:10;;;;;;;18.63;8.55;;;16.90;99.90;;;;;;4880595;29;20051;-90
2021/08/30 02:39:37;;;;;;;15.88;8.52;;;16.90;99.90;;;;;;4880442;29;20044;-91
2021/08/30 02:42:05;;;;;;;19.00;8.30;;;16.90;99.90;;;;;;4868129;29;20482;-90
2021/08/30 02:44:31;;;;;;;18.88;8.30;;;16.90;99.90;;;;;;4864863;29;20048;-90
2021/08/30 02:46:58;;;;;;;21.85;9.13;;;16.90;99.90;;;;;;4881010;29;20044;-91
2021/08/30 02:49:25;;;;;;;16.42;8.20;;;16.90;99.90;;;;;;4865033;29;20053;-90
2021/08/30 02:51:51;;;;;;;17.80;8.23;;;16.90;99.90;;;;;;4880493;29;20108;-90
2021/08/30 02:54:19;;;;;;;13.45;9.00;;;16.90;99.90;;;;;;4880169;29;20131;-92
2021/08/30 02:56:45;;;;;;;15.48;8.30;;;16.90;99.90;;;;;;4865144;29;20060;-90
2021/08/30 02:59:12;;;;;;;17.08;8.00;;;16.90;99.90;;;;;;4880986;29;20052;-90
2021/08/30 03:01:39;;;;;;;18.05;8.85;;;16.90;99.90;;;;;;4880066;29;20127;-93
2021/08/30 03:04:05;;;;;;;18.13;8.75;;;16.90;99.90;;;;;;4867854;29;20143;-91
2021/08/30 03:06:32;;;;;;;16.52;9.02;;;16.90;99.90;;;;;;4879974;29;20056;-93
2021/08/30 03:08:58;;;;;;;14.75;8.00;;;16.90;99.90;;;;;;4864908;29;20131;-91
2021/08/30 03:11:27;;;;;;;13.95;8.05;;;16.90;99.90;;;;;;4879425;29;20140;-91
2021/08/30 03:13:55;;;;;;;15.15;8.10;;;16.90;99.90;;;;;;4880280;29;20057;-90
2021/08/30 03:16:24;;;;;;;15.98;8.07;;;16.90;99.90;;;;;;4878746;29;20044;-90
2021/08/30 03:18:51;;;;;;;13.63;7.30;;;16.90;99.90;;;;;;4880228;29;20052;-91
2021/08/30 03:21:17;;;;;;;16.65;8.57;;;16.90;99.90;;;;;;4849061;29;20108;-91
2021/08/30 03:23:43;;;;;;;15.13;7.65;;;16.90;99.90;;;;;;4863881;29;20080;-90
2021/08/30 03:26:09;;;;;;;10.40;8.10;;;17.00;99.90;;;;;;4879599;29;20151;-90
2021/08/30 03:28:36;;;;;;;12.80;7.75;;;16.90;99.90;;;;;;4875032;29;20147;-90
2021/08/30 03:31:03;;;;;;;14.60;7.60;;;16.90;99.90;;;;;;4863759;29;20116;-90
2021/08/30 03:33:29;;;;;;;14.65;9.10;;;16.90;99.90;;;;;;4866224;29;20490;-89
2021/08/30 03:35:56;;;;;;;14.70;8.13;;;16.80;99.90;;;;;;4878774;29;20111;-90
2021/08/30 03:38:23;;;;;;;16.40;8.52;;;16.80;99.90;;;;;;4878576;29;20116;-90
2021/08/30 03:40:50;;;;;;;19.00;7.97;;;16.80;99.90;;;;;;4863866;29;20060;-90
2021/08/30 03:43:18;;;;;;;18.98;8.45;;;16.70;99.90;;;;;;4879345;29;20131;-90
2021/08/30 03:45:45;;;;;;;14.77;9.27;;;16.70;99.90;;;;;;4878560;29;20131;-90
2021/08/30 03:48:11;;;;;;;19.20;8.77;;;16.80;99.90;;;;;;4879175;29;20401;-90
2021/08/30 03:50:37;;;;;;;15.05;8.70;;;16.70;99.90;;;;;;4873667;29;20103;-90
2021/08/30 03:53:04;;;;;;;15.20;7.97;;;16.80;99.90;;;;;;4879050;29;20062;-91
2021/08/30 03:55:31;;;;;;;13.98;8.70;;;16.80;99.90;;;;;;4848441;29;20052;-91
2021/08/30 03:57:58;;;;;;;16.38;8.85;;;16.80;99.90;;;;;;4879914;29;20553;-90
2021/08/30 04:00:26;;;;;;;17.90;8.85;;;16.80;99.90;;;;;;4878821;29;20055;-92
2021/08/30 04:02:53;;;;;;;16.83;9.30;;;16.80;99.90;;;;;;4879298;29;20399;-90
2021/08/30 04:05:23;;;;;;;11.98;8.30;;;16.80;99.90;;;;;;4879194;29;20065;-88
2021/08/30 04:07:51;;;;;;;19.65;9.18;;;16.90;99.90;;;;;;4879387;29;20490;-89
2021/08/30 04:10:18;;;;;;;19.67;9.27;;;16.80;99.90;;;;;;4879483;29;20460;-90
2021/08/30 04:12:44;;;;;;;18.73;8.95;;;16.80;99.90;;;;;;4879000;29;20048;-89
2021/08/30 04:15:10;;;;;;;14.48;8.88;;;16.90;99.90;;;;;;4879290;29;20147;-91
2021/08/30 04:17:36;;;;;;;19.10;8.32;;;16.80;99.90;;;;;;4863329;29;20059;-90
2021/08/30 04:20:03;;;;;;;22.80;8.93;;;16.80;99.90;;;;;;4864300;29;20060;-91
2021/08/30 04:22:29;;;;;;;22.13;8.95;;;16.60;99.90;;;;;;4878521;29;20068;-91
2021/08/30 04:24:54;;;;;;;25.25;10.27;;;16.60;99.90;;;;;;4879269;29;20064;-91
2021/08/30 04:27:20;;;;;;;15.13;9.40;;;16.60;99.90;;;;;;4865241;29;20063;-90
2021/08/30 04:29:46;;;;;;;15.77;10.07;;;16.50;99.90;;;;;;4895809;29;20049;-90
2021/08/30 04:32:12;;;;;;;14.40;9.63;;;16.50;99.90;;;;;;4867674;29;20088;-92
2021/08/30 04:34:41;;;;;;;27.23;10.60;;;16.50;99.90;;;;;;4881821;29;20040;-93
2021/08/30 04:37:07;;;;;;;26.23;10.37;;;16.50;99.90;;;;;;4884458;29;20052;-92
2021/08/30 04:39:33;;;;;;;25.48;10.45;;;16.50;99.90;;;;;;4866999;29;20492;-92
2021/08/30 04:41:59;;;;;;;22.63;10.32;;;16.60;99.90;;;;;;4863582;29;20092;-92
2021/08/30 04:44:25;;;;;;;23.38;10.00;;;16.50;99.90;;;;;;4875166;29;20053;-92
2021/08/30 04:46:51;;;;;;;25.48;9.98;;;16.60;99.90;;;;;;4882178;29;20104;-91
2021/08/30 04:49:16;;;;;;;19.40;10.10;;;16.50;99.90;;;;;;4882698;29;20064;-91
2021/08/30 04:51:42;;;;;;;20.65;10.25;;;16.60;99.90;;;;;;4850824;29;20063;-92
2021/08/30 04:54:08;;;;;;;22.40;9.73;;;16.60;99.90;;;;;;4866699;29;20486;-91
2021/08/30 04:56:33;;;;;;;25.73;9.18;;;16.60;99.90;;;;;;4882398;29;20052;-91
2021/08/30 04:58:59;;;;;;;19.40;8.65;;;16.60;99.90;;;;;;4883075;29;20056;-92
2021/08/30 05:01:26;;;;;;;21.13;9.10;;;16.60;99.90;;;;;;4882160;29;20398;-93
2021/08/30 05:03:53;;;;;;;16.65;9.32;;;16.60;99.90;;;;;;4882078;29;20093;-91
2021/08/30 05:06:19;;;;;;;17.63;9.18;;;16.60;99.90;;;;;;4881508;29;20084;-91
2021/08/30 05:08:45;;;;;;;14.80;9.25;;;16.60;99.90;;;;;;4880469;29;20449;-92
2021/08/30 05:11:10;;;;;;;17.95;8.48;;;16.70;99.90;;;;;;4880510;29;20052;-92
2021/08/30 05:13:36;;;;;;;13.00;8.77;;;16.70;99.90;;;;;;4861965;29;20550;-90
2021/08/30 05:16:02;;;;;;;16.98;9.05;;;16.70;99.90;;;;;;4852419;29;20415;-92
2021/08/30 05:18:27;;;;;;;13.85;8.50;;;16.70;99.90;;;;;;4883299;29;20101;-93
2021/08/30 05:20:53;;;;;;;16.85;9.13;;;16.70;99.90;;;;;;4881291;29;20048;-92
2021/08/30 05:23:19;;;;;;;15.57;8.77;;;16.70;99.90;;;;;;4882554;29;20451;-93
2021/08/30 05:25:45;;;;;;;15.63;8.52;;;16.70;99.90;;;;;;4880127;29;20056;-93
2021/08/30 05:28:12;;;;;;;13.68;8.07;;;16.70;99.90;;;;;;4880682;29;20092;-93
2021/08/30 05:30:37;;;;;;;20.00;9.05;;;16.80;99.90;;;;;;4880359;29;20557;-93
2021/08/30 05:33:04;;;;;;;12.90;8.40;;;16.80;99.90;;;;;;4880276;29;20068;-92
2021/08/30 05:35:30;;;;;;;13.80;8.13;;;16.80;99.90;;;;;;4880299;29;20041;-95
2021/08/30 05:37:56;;;;;;;13.77;7.88;;;16.80;99.90;;;;;;4880051;29;20057;-92
2021/08/30 05:40:22;;;;;;;13.45;7.97;;;16.80;99.90;;;;;;4866771;29;20063;-93
2021/08/30 05:42:48;;;;;;;13.45;8.73;;;16.80;99.90;;;;;;4893502;29;20131;-91
2021/08/30 05:45:13;;;;;;;17.42;7.95;;;16.80;99.90;;;;;;4882852;29;20053;-92
2021/08/30 05:47:39;;;;;;;19.30;8.60;;;16.80;99.90;;;;;;4865781;29;20056;-92
2021/08/30 05:50:06;;;;;;;15.10;7.88;;;16.90;99.90;;;;;;4881927;29;20060;-91
2021/08/30 05:52:31;;;;;;;13.05;8.23;;;16.90;99.90;;;;;;4881832;29;20135;-92
2021/08/30 05:54:57;;;;;;;16.83;8.50;;;16.90;99.90;;;;;;4881076;29;20140;-92
2021/08/30 05:57:23;;;;;;;19.63;7.80;;;16.90;99.90;;;;;;4881984;29;20040;-92
2021/08/30 05:59:48;;;;;;;15.35;8.40;;;17.00;99.90;;;;;;4881878;29;20517;-92
2021/08/30 06:02:14;;;;;;;18.00;10.02;;;17.00;99.90;;;;;;4881769;29;20055;-93
2021/08/30 06:04:40;;;;;;;17.20;8.32;;;17.10;99.90;;;;;;4881220;29;20057;-92
2021/08/30 06:07:05;;;;;;;14.25;8.88;;;17.10;99.90;;;;;;4881335;29;20128;-91
2021/08/30 06:09:31;;;;;;;17.70;8.55;;;17.10;99.90;;;;;;4881435;29;20583;-90
2021/08/30 06:11:57;;;;;;;19.27;8.60;;;17.10;99.90;;;;;;4878877;29;20067;-92
2021/08/30 06:14:23;;;;;;;19.88;8.55;;;17.10;99.90;;;;;;4865573;29;20131;-92
2021/08/30 06:16:49;;;;;;;22.80;8.35;;;17.20;99.90;;;;;;4880769;29;20080;-92
2021/08/30 06:19:15;;;;;;;20.45;8.25;;;17.20;99.90;;;;;;4880747;29;20091;-92
2021/08/30 06:21:40;;;;;;;20.35;9.25;;;17.20;99.90;;;;;;4865493;29;20490;-92
2021/08/30 06:24:06;;;;;;;18.83;9.50;;;17.20;99.90;;;;;;4880300;29;20084;-92
2021/08/30 06:26:33;;;;;;;15.35;8.40;;;17.20;99.90;;;;;;4865426;29;20380;-92
2021/08/30 06:29:00;;;;;;;17.95;8.50;;;17.30;99.90;;;;;;4880282;29;20766;-92
2021/08/30 06:31:25;;;;;;;16.33;8.70;;;17.30;99.90;;;;;;4867692;29;20052;-91
2021/08/30 06:33:51;;;;;;;15.40;8.48;;;17.30;99.90;;;;;;4877648;29;20055;-91
2021/08/30 06:36:17;;;;;;;17.77;9.07;;;17.30;99.90;;;;;;4873392;29;20052;-91
2021/08/30 06:38:43;;;;;;;20.20;9.23;;;17.30;99.90;;;;;;4872983;29;20075;-91
2021/08/30 06:41:08;;;;;;;17.48;8.98;;;17.40;99.90;;;;;;4889098;29;20063;-91
2021/08/30 06:43:34;;;;;;;14.30;7.72;;;17.40;99.90;;;;;;4873037;29;20485;-91
2021/08/30 06:46:00;;;;;;;15.50;8.20;;;17.40;99.90;;;;;;4864270;29;20145;-93
2021/08/30 06:48:25;;;;;;;17.95;8.77;;;17.40;99.90;;;;;;4892953;29;20048;-93
2021/08/30 06:50:51;;;;;;;17.05;8.10;;;17.50;99.90;;;;;;4866005;29;20056;-92
2021/08/30 06:53:17;;;;;;;12.77;8.15;;;17.50;99.90;;;;;;4864237;29;20555;-93
2021/08/30 06:55:42;;;;;;;12.30;7.97;;;17.50;99.90;;;;;;4861735;29;20045;-93
2021/08/30 06:58:08;;;;;;;13.98;7.82;;;17.60;99.90;;;;;;4879482;29;20148;-91
2021/08/30 07:00:34;;;;;;;16.40;7.93;;;17.60;99.90;;;;;;4877262;29;20165;-91
2021/08/30 07:02:59;;;;;;;15.75;7.72;;;17.60;99.90;;;;;;4879402;29;20586;-91
2021/08/30 07:05:25;;;;;;;11.73;7.35;;;17.70;99.90;;;;;;4880358;29;20076;-91
2021/08/30 07:07:51;;;;;;;19.00;8.48;;;17.70;99.90;;;;;;4887546;29;20055;-92
2021/08/30 07:10:17;;;;;;;17.08;7.38;;;17.80;99.90;;;;;;4873196;29;20045;-92
2021/08/30 07:12:43;;;;;;;17.00;7.45;;;17.80;99.90;;;;;;4879477;29;20111;-92
2021/08/30 07:15:09;;;;;;;15.65;7.88;;;17.80;99.90;;;;;;4845808;29;20513;-92
2021/08/30 07:17:35;;;;;;;11.38;7.00;;;17.90;99.90;;;;;;4877132;29;20052;-92
2021/08/30 07:20:01;;;;;;;15.63;7.43;;;17.90;99.90;;;;;;4878653;29;20040;-92
2021/08/30 07:22:27;;;;;;;10.43;6.93;;;18.00;99.90;;;;;;4851359;29;20057;-92
2021/08/30 07:24:52;;;;;;;15.05;6.97;;;18.00;99.90;;;;;;4862733;29;20052;-91
2021/08/30 07:27:18;;;;;;;12.68;6.35;;;18.00;99.90;;;;;;4863090;29;20052;-90
2021/08/30 07:29:44;;;;;;;15.38;7.55;;;18.10;99.90;;;;;;4863248;29;20052;-91
2021/08/30 07:32:11;;;;;;;14.95;6.88;;;18.10;99.90;;;;;;4879081;29;20056;-90
2021/08/30 07:34:36;;;;;;;11.38;6.78;;;18.10;99.90;;;;;;4874117;29;20045;-92
2021/08/30 07:37:03;;;;;;;9.90;6.43;;;18.10;99.90;;;;;;4885010;29;20087;-91
2021/08/30 07:39:29;;;;;;;10.43;6.63;;;18.10;99.90;;;;;;4896721;29;20052;-92
2021/08/30 07:41:54;;;;;;;13.60;7.43;;;18.20;99.90;;;;;;4890523;29;20104;-92
2021/08/30 07:44:21;;;;;;;10.77;5.65;;;18.20;99.90;;;;;;4880943;29;20048;-94
2021/08/30 07:46:48;;;;;;;9.10;6.50;;;18.20;99.90;;;;;;4865034;29;20048;-94
2021/08/30 07:49:13;;;;;;;14.50;5.78;;;18.30;99.90;;;;;;4865938;29;20601;-94
2021/08/30 07:51:39;;;;;;;9.00;5.75;;;18.40;99.90;;;;;;4877743;29;20084;-93
2021/08/30 07:54:06;;;;;;;14.07;6.15;;;18.40;99.90;;;;;;4877777;29;20037;-94
2021/08/30 07:56:32;;;;;;;8.07;5.60;;;18.40;99.90;;;;;;4875746;29;20064;-92
2021/08/30 07:58:58;;;;;;;9.45;5.40;;;18.50;99.90;;;;;;4856513;29;20037;-93
2021/08/30 08:01:23;;;;;;;8.38;5.15;;;18.60;99.90;;;;;;4882698;29;20044;-93
2021/08/30 08:03:49;;;;;;;12.85;5.95;;;18.70;99.90;;;;;;4881281;29;20100;-93
2021/08/30 08:06:16;;;;;;;8.80;5.50;;;18.80;99.90;;;;;;4869010;29;20055;-93
2021/08/30 08:08:42;;;;;;;8.18;5.25;;;18.90;99.90;;;;;;4883325;29;20116;-93
2021/08/30 08:11:09;;;;;;;9.52;4.57;;;19.10;99.90;;;;;;4882044;29;20631;-94
2021/08/30 08:13:36;;;;;;;18.30;4.95;;;19.10;99.90;;;;;;4891949;29;20055;-94
2021/08/30 08:16:02;;;;;;;8.10;4.00;;;19.10;99.90;;;;;;4884118;29;20084;-93
2021/08/30 08:18:28;;;;;;;8.63;4.40;;;19.20;99.90;;;;;;4859733;29;20037;-94
2021/08/30 08:20:54;;;;;;;8.23;4.50;;;19.10;99.90;;;;;;4875671;29;20104;-95
2021/08/30 08:23:20;;;;;;;14.85;5.38;;;19.10;99.90;;;;;;4880592;29;20108;-93
2021/08/30 08:25:45;;;;;;;10.82;5.07;;;19.10;99.90;;;;;;4881132;29;20068;-93
2021/08/30 08:28:11;;;;;;;8.32;4.65;;;19.20;99.90;;;;;;4881017;29;20056;-94
2021/08/30 08:30:37;;;;;;;14.27;4.75;;;19.10;99.90;;;;;;4881270;29;20509;-94
2021/08/30 08:33:02;;;;;;;7.03;4.30;;;19.10;99.90;;;;;;4876898;29;20486;-94
2021/08/30 08:35:28;;;;;;;10.63;4.18;;;19.00;99.90;;;;;;4866151;29;20044;-94
2021/08/30 08:37:54;;;;;;;8.30;4.65;;;19.00;99.90;;;;;;4880623;29;20059;-93
2021/08/30 08:40:20;;;;;;;8.02;5.18;;;19.00;99.90;;;;;;4881670;29;20036;-93
2021/08/30 08:42:46;;;;;;;7.75;4.85;;;19.00;99.90;;;;;;4881460;29;20126;-92
2021/08/30 08:45:15;;;;;;;11.55;5.00;;;19.10;99.90;;;;;;4860921;29;20478;-94
2021/08/30 08:47:41;;;;;;;9.10;4.20;;;19.10;99.90;;;;;;4858204;29;20506;-94
2021/08/30 08:50:10;;;;;;;8.20;4.32;;;19.10;99.90;;;;;;4881021;29;20040;-94
2021/08/30 08:52:36;;;;;;;7.88;4.88;;;19.10;99.90;;;;;;4881835;29;20044;-95
2021/08/30 08:55:04;;;;;;;7.97;4.65;;;19.10;99.90;;;;;;4878730;29;20094;-94
2021/08/30 08:57:30;;;;;;;5.57;4.60;;;19.10;99.90;;;;;;4881100;29;20512;-94
2021/08/30 08:59:59;;;;;;;6.53;4.20;;;19.00;99.90;;;;;;4867626;29;20089;-93
2021/08/30 09:08:42;;;;;;;4.80;3.40;;;18.90;99.90;;;;;;5295839;23;20076;-94
2021/08/30 09:11:19;;;;;;;6.15;3.55;;;18.90;99.90;;;;;;4858357;29;20045;-95
2021/08/30 09:13:56;;;;;;;5.45;4.03;;;19.00;99.90;;;;;;4848093;29;20077;-94
2021/08/30 09:27:11;;;;;;;5.93;4.25;;;19.20;99.90;;;;;;5193665;23;20068;-86
2021/08/30 09:29:42;;;;;;;5.60;4.00;;;19.20;99.90;;;;;;4846585;29;20664;-92
2021/08/30 09:32:17;;;;;;;6.65;3.63;;;19.10;99.90;;;;;;4879239;29;20135;-91
2021/08/30 09:34:50;;;;;;;5.40;3.85;;;19.10;99.90;;;;;;4894076;29;20048;-91
2021/08/30 09:37:18;;;;;;;7.72;4.05;;;19.10;99.90;;;;;;4879112;29;20056;-88
2021/08/30 09:40:05;;;;;;;10.18;3.83;;;19.10;99.90;;;;;;4893904;29;20115;-88
2021/08/30 09:42:31;;;;;;;6.57;4.05;;;19.10;99.90;;;;;;4877297;29;20068;-89
2021/08/30 09:45:15;;;;;;;8.00;4.10;;;19.10;99.90;;;;;;4894230;29;20049;-87
2021/08/30 09:48:01;;;;;;;5.10;3.90;;;19.00;99.90;;;;;;4893735;29;20466;-87
2021/08/30 09:50:28;;;;;;;6.32;3.97;;;19.10;99.90;;;;;;4862521;29;20045;-88
2021/08/30 09:52:54;;;;;;;7.57;3.58;;;19.10;99.90;;;;;;4863131;29;20060;-87
2021/08/30 09:55:20;;;;;;;4.97;3.72;;;19.10;99.90;;;;;;4893785;29;20548;-90
2021/08/30 09:57:50;;;;;;;4.35;3.63;;;19.20;99.90;;;;;;4862569;29;20140;-88
2021/08/30 10:00:18;;;;;;;10.50;4.00;;;19.20;99.90;;;;;;4894180;29;20088;-88
2021/08/30 10:02:52;;;;;;;5.82;3.83;;;19.20;99.90;;;;;;4877779;29;20049;-88
2021/08/30 10:05:18;;;;;;;4.93;3.67;;;19.20;99.90;;;;;;4863044;29;20052;-89
2021/08/30 10:07:45;;;;;;;4.88;3.65;;;19.20;99.90;;;;;;4877635;29;20049;-88
2021/08/30 10:10:12;;;;;;;6.60;3.72;;;19.20;99.90;;;;;;4893931;29;20056;-88
2021/08/30 10:12:39;;;;;;;5.65;3.90;;;19.20;99.90;;;;;;4893072;29;20057;-89
2021/08/30 10:15:06;;;;;;;8.43;3.80;;;19.30;99.90;;;;;;4877986;29;20053;-88
2021/08/30 10:17:33;;;;;;;6.22;3.47;;;19.40;99.90;;;;;;4877367;29;20090;-88
2021/08/30 10:20:01;;;;;;;8.63;4.22;;;19.60;99.90;;;;;;4862486;29;20060;-88
2021/08/30 10:22:27;;;;;;;6.40;4.30;;;19.90;99.90;;;;;;4877963;29;20079;-91
2021/08/30 10:24:53;;;;;;;6.72;3.97;;;20.00;99.90;;;;;;4892842;29;20049;-89
2021/08/30 10:27:33;;;;;;;6.25;4.40;;;20.00;99.90;;;;;;4892881;29;20063;-89
2021/08/30 10:30:11;;;;;;;11.15;5.07;;;19.80;99.90;;;;;;4862339;29;20049;-90
2021/08/30 10:32:42;;;;;;;6.38;3.58;;;19.70;99.90;;;;;;4861681;29;20520;-89
2021/08/30 10:35:18;;;;;;;16.73;5.72;;;19.60;99.90;;;;;;4893523;29;20053;-90
2021/08/30 10:37:49;;;;;;;6.15;4.57;;;19.50;99.90;;;;;;4862421;29;20500;-89
2021/08/30 10:40:17;;;;;;;5.45;3.55;;;19.50;99.90;;;;;;4862509;29;20057;-91
2021/08/30 10:42:43;;;;;;;3.42;3.22;;;19.70;99.90;;;;;;4892722;29;20059;-93
2021/08/30 10:45:10;;;;;;;5.25;3.60;;;19.70;99.90;;;;;;4878007;29;20048;-89
2021/08/30 10:47:39;;;;;;;6.07;3.60;;;19.80;99.90;;;;;;4861431;29;20056;-91
2021/08/30 10:50:17;;;;;;;11.77;4.40;;;19.70;99.90;;;;;;4862014;29;20113;-92
2021/08/30 10:52:43;;;;;;;3.55;3.25;;;19.80;99.90;;;;;;4861666;29;20064;-94
2021/08/30 10:55:19;;;;;;;7.55;3.95;;;19.80;99.90;;;;;;4893368;29;20049;-94
2021/08/30 10:57:51;;;;;;;5.53;3.63;;;19.80;99.90;;;;;;4877640;29;20086;-94
2021/08/30 11:00:17;;;;;;;4.07;3.33;;;19.70;99.90;;;;;;4877730;29;20131;-93
2021/08/30 11:02:50;;;;;;;4.35;3.50;;;19.80;99.90;;;;;;4893203;29;20053;-95
2021/08/30 11:05:25;;;;;;;4.25;3.80;;;20.00;99.90;;;;;;4847282;29;20071;-94
2021/08/30 11:07:52;;;;;;;8.95;4.65;;;20.10;99.90;;;;;;4862264;29;20098;-95
2021/08/30 11:10:19;;;;;;;7.18;3.92;;;20.20;99.90;;;;;;4862801;29;20052;-92
2021/08/30 11:12:45;;;;;;;7.03;3.92;;;20.20;99.90;;;;;;4862220;29;20654;-93
2021/08/30 11:15:12;;;;;;;6.07;3.90;;;20.20;99.90;;;;;;4877806;29;20131;-93
2021/08/30 11:17:37;;;;;;;5.28;4.43;;;20.10;99.90;;;;;;4862170;29;20099;-93
2021/08/30 11:20:05;;;;;;;7.15;4.10;;;20.20;99.90;;;;;;4893729;29;20076;-94
2021/08/30 11:22:32;;;;;;;6.05;3.85;;;20.20;99.90;;;;;;4862279;29;20383;-94
2021/08/30 11:24:59;;;;;;;6.53;3.65;;;20.30;99.90;;;;;;4862458;29;20087;-95
2021/08/30 11:27:30;;;;;;;7.00;3.90;;;20.40;99.90;;;;;;4893283;29;20064;-94
2021/08/30 11:30:00;;;;;;;9.48;3.92;;;20.70;99.90;;;;;;4861180;29;20100;-94
2021/08/30 11:32:28;;;;;;;8.48;3.88;;;20.70;99.90;;;;;;4877844;29;20109;-94
2021/08/30 11:34:54;;;;;;;7.70;3.75;;;20.60;99.90;;;;;;4861569;29;20041;-93
2021/08/30 11:37:23;;;;;;;7.88;3.72;;;20.40;99.90;;;;;;4877351;29;20459;-94
2021/08/30 11:39:50;;;;;;;6.35;4.00;;;20.20;99.90;;;;;;4877103;29;20644;-94
2021/08/30 11:42:19;;;;;;;5.60;3.28;;;20.10;99.90;;;;;;4877768;29;20051;-94
2021/08/30 11:44:45;;;;;;;3.08;2.63;;;20.10;99.90;;;;;;4861441;29;20552;-95
2021/08/30 11:47:14;;;;;;;7.88;4.05;;;19.90;99.90;;;;;;4862242;29;20052;-95
2021/08/30 11:49:41;;;;;;;4.85;3.47;;;19.70;99.90;;;;;;4878132;29;20045;-94
2021/08/30 11:52:07;;;;;;;5.18;3.90;;;19.60;99.90;;;;;;4877731;29;20080;-95
2021/08/30 11:54:36;;;;;;;12.77;3.53;;;19.70;99.90;;;;;;4861858;29;20157;-93
2021/08/30 11:57:04;;;;;;;7.32;3.63;;;19.80;99.90;;;;;;4877417;29;20053;-95
2021/08/30 11:59:35;;;;;;;5.40;3.47;;;19.90;99.90;;;;;;4862161;29;20049;-94
2021/08/30 12:02:03;;;;;;;5.03;3.42;;;19.80;99.90;;;;;;4877706;29;20057;-94
2021/08/30 12:04:31;;;;;;;4.30;3.75;;;19.70;99.90;;;;;;4877543;29;20132;-95
2021/08/30 12:07:01;;;;;;;5.47;4.10;;;19.90;99.90;;;;;;4877274;29;20064;-95
2021/08/30 12:09:40;;;;;;;7.40;3.95;;;20.10;99.90;;;;;;4877406;29;20049;-94
2021/08/30 12:12:29;;;;;;;5.65;3.88;;;20.20;99.90;;;;;;4877360;29;20490;-95
2021/08/30 12:15:07;;;;;;;9.13;3.92;;;20.20;99.90;;;;;;4877008;29;20099;-95
2021/08/30 12:17:41;;;;;;;4.47;3.75;;;20.30;99.90;;;;;;4861809;29;20053;-96
2021/08/30 12:20:10;;;;;;;14.75;4.82;;;20.30;99.90;;;;;;4862084;29;20041;-93
2021/08/30 12:22:48;;;;;;;8.05;3.72;;;20.20;99.90;;;;;;4892842;29;20057;-94
2021/08/30 12:25:33;;;;;;;5.63;3.90;;;20.10;99.90;;;;;;4861882;29;20053;-94
2021/08/30 12:27:59;;;;;;;15.38;4.57;;;20.30;99.90;;;;;;4861968;29;20120;-94
2021/08/30 12:30:26;;;;;;;12.70;5.40;;;20.20;99.90;;;;;;4861829;29;20550;-96
2021/08/30 12:33:09;;;;;;;8.90;4.28;;;20.10;99.90;;;;;;4861378;29;20120;-94
2021/08/30 12:35:39;;;;;;;10.35;4.85;;;20.20;99.90;;;;;;4892817;29;20409;-96
2021/08/30 12:38:11;;;;;;;6.80;4.20;;;20.30;99.90;;;;;;4892682;29;20099;-95
2021/08/30 12:40:40;;;;;;;5.22;4.38;;;20.30;99.90;;;;;;4863921;29;20127;-93
2021/08/30 12:43:06;;;;;;;9.65;4.50;;;20.30;99.90;;;;;;4861851;29;20413;-95
2021/08/30 12:45:32;;;;;;;6.45;4.10;;;20.30;99.90;;;;;;4861888;29;20057;-94
2021/08/30 12:47:58;;;;;;;5.78;4.38;;;20.30;99.90;;;;;;4861730;29;20081;-94
2021/08/30 12:50:25;;;;;;;6.32;4.10;;;20.30;99.90;;;;;;4864647;29;20045;-93
2021/08/30 12:52:51;;;;;;;4.57;3.63;;;20.30;99.90;;;;;;4879850;29;20393;-93
2021/08/30 12:55:18;;;;;;;6.93;3.95;;;20.20;99.90;;;;;;4864659;29;20081;-93
2021/08/30 12:57:43;;;;;;;6.45;4.00;;;20.20;99.90;;;;;;4895372;29;20053;-93
2021/08/30 13:00:12;;;;;;;10.15;4.70;;;20.40;99.90;;;;;;4863562;29;20633;-94
2021/08/30 13:02:43;;;;;;;7.50;4.65;;;20.50;99.90;;;;;;4864910;29;20061;-90